Time;durP1;ratioP1;P1;durP2;ratioP2;P2;SDS_P1;SDS_P2;PMS_P1;PMS_P2;Temp;Humidity;BMP_temperature;BMP_pressure;BME280_temperature;BME280_humidity;BME280_pressure;Samples;Min_cycle;Max_cycle;Signal;HPM_P1;HPM_P2
2022/01/22 00:03:32;;;;;;;;;;;;;;;21.13;26.84;96785.59;10433902;28;1906;-50
2022/01/22 00:08:32;;;;;;;;;;;;;;;21.12;25.96;96778.75;10432105;28;2378;-50
2022/01/22 00:18:52;;;;;;;;;;;;;;;21.12;26.59;96789.28;10433099;28;2388;-53
2022/01/22 00:23:57;;;;;;;;;;;;;;;21.13;26.54;96791.66;10428250;28;1910;-53
2022/01/22 00:28:57;;;;;;;;;;;;;;;21.13;26.52;96796.13;10430045;28;1805;-51
2022/01/22 00:33:57;;;;;;;;;;;;;;;21.09;25.55;96780.03;10429028;28;1789;-51
2022/01/22 00:38:58;;;;;;;;;;;;;;;21.10;26.10;96779.00;10425776;28;1873;-51
2022/01/22 00:43:58;;;;;;;;;;;;;;;21.10;26.03;96786.09;10428487;28;2031;-49
2022/01/22 00:48:59;;;;;;;;;;;;;;;21.10;25.70;96775.56;10431336;28;1904;-52
2022/01/22 00:54:01;;;;;;;;;;;;;;;21.08;26.09;96767.13;10425778;28;2008;-52
2022/01/22 00:59:01;;;;;;;;;;;;;;;21.04;25.09;96746.50;10427510;28;1984;-53
2022/01/22 01:04:03;;;;;;;;;;;;;;;21.05;25.35;96739.41;10433472;28;1977;-50
2022/01/22 01:09:05;;;;;;;;;;;;;;;21.02;25.78;96753.88;10433006;28;1943;-52
2022/01/22 01:14:09;;;;;;;;;;;;;;;21.01;24.72;96752.28;10427953;28;1861;-54
2022/01/22 01:35:08;;;;;;;;;;;;;;;21.03;25.44;96737.03;10396314;28;1840;-48
2022/01/22 01:40:09;;;;;;;;;;;;;;;21.05;25.16;96736.78;10392763;28;1825;-52
2022/01/22 01:45:10;;;;;;;;;;;;;;;21.01;24.41;96731.19;10399563;28;1923;-51
2022/01/22 01:50:11;;;;;;;;;;;;;;;21.00;24.97;96747.22;10393752;28;2366;-50
2022/01/22 01:55:16;;;;;;;;;;;;;;;20.95;24.46;96726.13;10395405;28;2504;-54
2022/01/22 02:00:25;;;;;;;;;;;;;;;20.94;25.16;96725.31;10389077;28;1897;-50
2022/01/22 02:05:26;;;;;;;;;;;;;;;20.99;24.34;96724.56;10395167;28;1989;-54
2022/01/22 02:10:30;;;;;;;;;;;;;;;20.98;24.42;96705.31;10392105;28;1928;-50
2022/01/22 02:26:37;;;;;;;;;;;;;;;20.90;24.38;96684.72;10392810;28;1843;-48
2022/01/22 02:31:53;;;;;;;;;;;;;;;20.94;25.31;96682.34;10390017;28;1831;-48
2022/01/22 02:37:05;;;;;;;;;;;;;;;20.94;24.58;96693.69;10397099;28;1894;-49
2022/01/22 02:42:05;;;;;;;;;;;;;;;20.92;24.68;96690.50;10391286;28;1990;-49
2022/01/22 02:47:07;;;;;;;;;;;;;;;20.93;24.84;96681.56;10393532;28;1851;-49
2022/01/22 02:52:08;;;;;;;;;;;;;;;20.93;25.10;96697.41;10392070;28;1899;-49
2022/01/22 02:57:10;;;;;;;;;;;;;;;20.93;24.04;96688.69;10394880;28;1819;-51
2022/01/22 03:02:13;;;;;;;;;;;;;;;20.95;23.94;96697.94;10392429;28;1969;-50
2022/01/22 03:07:14;;;;;;;;;;;;;;;20.97;23.93;96695.84;10386424;28;1944;-51
2022/01/22 03:13:11;;;;;;;;;;;;;;;21.02;25.00;96701.16;10390970;28;2027;-52
2022/01/22 03:23:08;;;;;;;;;;;;;;;20.92;24.74;96692.34;10396685;28;2284;-49
2022/01/22 03:28:09;;;;;;;;;;;;;;;20.89;24.34;96688.41;10402749;28;1917;-50
2022/01/22 03:33:09;;;;;;;;;;;;;;;20.90;24.70;96681.25;10396089;28;1897;-46
2022/01/22 03:38:10;;;;;;;;;;;;;;;20.93;24.78;96689.47;10400047;28;1982;-48
2022/01/22 03:43:10;;;;;;;;;;;;;;;20.93;24.97;96678.94;10400771;28;1989;-50
2022/01/22 03:48:11;;;;;;;;;;;;;;;20.90;24.89;96682.06;10397588;28;1945;-47
2022/01/22 03:53:11;;;;;;;;;;;;;;;20.93;24.58;96688.69;10393626;28;2454;-51
2022/01/22 03:58:12;;;;;;;;;;;;;;;20.90;24.42;96682.06;10398286;28;2479;-50
2022/01/22 04:03:55;;;;;;;;;;;;;;;20.90;24.34;96676.81;10394416;28;2298;-46
2022/01/22 04:08:40;;;;;;;;;;;;;;;20.91;23.98;96699.47;10389953;28;2008;-47
2022/01/22 04:13:40;;;;;;;;;;;;;;;20.86;23.67;96686.25;10395358;28;1877;-48
2022/01/22 04:29:21;;;;;;;;;;;;;;;20.91;24.92;96682.88;10394261;28;1963;-49
2022/01/22 04:34:22;;;;;;;;;;;;;;;20.93;24.54;96686.84;10392219;28;1864;-48
2022/01/22 04:39:24;;;;;;;;;;;;;;;20.88;24.01;96694.72;10390795;28;1917;-49
2022/01/22 04:44:28;;;;;;;;;;;;;;;20.85;23.23;96689.97;10388198;28;1969;-53
2022/01/22 04:55:00;;;;;;;;;;;;;;;20.86;24.08;96683.63;10391319;28;2327;-52
2022/01/22 05:00:01;;;;;;;;;;;;;;;20.89;24.55;96685.78;10392885;28;2322;-48
2022/01/22 05:05:02;;;;;;;;;;;;;;;20.88;24.03;96689.44;10395522;28;2301;-51
2022/01/22 05:10:03;;;;;;;;;;;;;;;20.90;24.35;96682.06;10389563;28;1977;-51
2022/01/22 05:15:04;;;;;;;;;;;;;;;20.93;24.64;96675.50;10389220;28;2342;-51
2022/01/22 05:20:10;;;;;;;;;;;;;;;20.84;23.72;96667.28;10390968;28;2238;-51
2022/01/22 05:25:19;;;;;;;;;;;;;;;20.84;23.82;96663.84;10391759;28;2274;-49
2022/01/22 05:40:48;;;;;;;;;;;;;;;20.87;23.46;96665.97;10392030;28;2212;-48
2022/01/22 05:45:48;;;;;;;;;;;;;;;20.87;23.73;96668.63;10394700;28;2003;-50
2022/01/22 05:50:53;;;;;;;;;;;;;;;20.83;23.77;96681.50;10384264;28;2067;-48
2022/01/22 06:00:57;;;;;;;;;;;;;;;20.83;23.61;96686.78;10388632;28;2157;-48
2022/01/22 06:05:58;;;;;;;;;;;;;;;20.83;23.43;96675.44;10406838;28;1937;-49
2022/01/22 06:11:10;;;;;;;;;;;;;;;20.90;24.28;96686.53;10384642;28;1944;-47
2022/01/22 06:16:11;;;;;;;;;;;;;;;20.87;23.92;96692.31;10391312;28;1957;-53
2022/01/22 06:21:12;;;;;;;;;;;;;;;20.84;24.09;96688.34;10388104;28;1961;-47
2022/01/22 06:26:12;;;;;;;;;;;;;;;20.87;24.06;96697.59;10393605;28;1889;-49
2022/01/22 06:31:13;;;;;;;;;;;;;;;20.86;24.24;96702.06;10381384;28;1930;-47
2022/01/22 06:36:14;;;;;;;;;;;;;;;20.85;23.87;96716.31;10379376;28;1941;-47
2022/01/22 06:46:34;;;;;;;;;;;;;;;20.86;23.53;96738.97;10386607;28;2037;-46
2022/01/22 06:51:34;;;;;;;;;;;;;;;20.85;23.59;96737.38;10370232;28;2159;-50
2022/01/22 06:56:35;;;;;;;;;;;;;;;20.90;24.09;96736.63;10380220;28;1928;-51
2022/01/22 07:01:35;;;;;;;;;;;;;;;20.87;23.72;96727.38;10365925;28;1940;-49
2022/01/22 07:06:35;;;;;;;;;;;;;;;20.86;24.27;96733.69;10381043;28;1992;-52
2022/01/22 07:11:36;;;;;;;;;;;;;;;20.88;24.21;96739.50;10386117;28;1937;-46
2022/01/22 07:16:36;;;;;;;;;;;;;;;20.88;23.79;96751.88;10385330;28;1885;-49
2022/01/22 07:21:41;;;;;;;;;;;;;;;20.90;24.36;96755.88;10382225;28;1982;-50
2022/01/22 07:26:41;;;;;;;;;;;;;;;20.93;24.35;96746.66;10384237;28;2051;-48
2022/01/22 07:31:42;;;;;;;;;;;;;;;20.90;24.14;96755.06;10385813;28;1938;-47
2022/01/22 07:36:42;;;;;;;;;;;;;;;20.93;23.81;96760.66;10420252;23;2155;-52
2022/01/22 07:41:43;;;;;;;;;;;;;;;20.94;24.84;96772.75;10409964;28;2019;-52
2022/01/22 07:46:43;;;;;;;;;;;;;;;21.05;25.72;96779.75;10402627;28;1953;-52
2022/01/22 07:51:43;;;;;;;;;;;;;;;21.06;25.91;96789.22;10407733;28;2027;-49
2022/01/22 07:56:44;;;;;;;;;;;;;;;21.17;26.42;96795.38;10406455;28;1915;-49
2022/01/22 08:01:44;;;;;;;;;;;;;;;21.19;25.23;96787.22;10409909;28;1989;-54
2022/01/22 08:06:44;;;;;;;;;;;;;;;21.18;26.17;96783.81;10403068;28;1877;-52
2022/01/22 08:11:45;;;;;;;;;;;;;;;21.14;25.49;96787.19;10412347;28;2051;-53
2022/01/22 08:16:47;;;;;;;;;;;;;;;21.14;25.61;96784.56;10409444;28;1953;-52
2022/01/22 08:21:47;;;;;;;;;;;;;;;21.10;25.74;96786.91;10406953;28;2040;-50
2022/01/22 08:26:53;;;;;;;;;;;;;;;21.12;25.74;96784.00;10417358;28;1964;-51
2022/01/22 08:32:06;;;;;;;;;;;;;;;21.11;25.01;96792.97;10406433;28;2066;-53
2022/01/22 08:37:07;;;;;;;;;;;;;;;21.10;26.09;96807.19;10432728;28;1996;-54
2022/01/22 08:42:07;;;;;;;;;;;;;;;21.11;24.85;96804.31;10414290;28;2015;-53
2022/01/22 08:47:08;;;;;;;;;;;;;;;21.10;25.14;96809.84;10429894;28;1987;-53
2022/01/22 08:52:12;;;;;;;;;;;;;;;21.12;24.57;96813.00;10407766;28;1928;-54
2022/01/22 08:57:13;;;;;;;;;;;;;;;21.11;24.56;96816.69;10408475;28;1887;-54
2022/01/22 09:02:14;;;;;;;;;;;;;;;21.02;23.91;96816.34;10418472;28;2098;-51
2022/01/22 09:07:15;;;;;;;;;;;;;;;21.14;25.54;96824.09;10436973;28;1874;-50
2022/01/22 09:12:16;;;;;;;;;;;;;;;21.10;24.62;96823.03;10427012;28;1993;-51
2022/01/22 09:17:17;;;;;;;;;;;;;;;21.24;25.92;96840.00;10406933;28;2108;-57
2022/01/22 09:22:17;;;;;;;;;;;;;;;21.26;25.35;96845.81;10413527;28;1989;-53
2022/01/22 09:27:18;;;;;;;;;;;;;;;21.25;25.62;96852.13;10413268;28;2026;-56
2022/01/22 09:32:19;;;;;;;;;;;;;;;21.31;27.13;96859.06;10407457;28;2183;-57
2022/01/22 09:37:20;;;;;;;;;;;;;;;21.26;25.91;96853.72;10409118;28;1906;-54
2022/01/22 09:42:20;;;;;;;;;;;;;;;21.24;26.49;96863.75;10411446;28;2095;-54
2022/01/22 09:47:22;;;;;;;;;;;;;;;21.24;26.45;96869.00;10409538;28;1840;-56
2022/01/22 09:52:22;;;;;;;;;;;;;;;21.33;26.78;96878.06;10410452;28;1932;-56
2022/01/22 09:57:25;;;;;;;;;;;;;;;21.28;26.16;96888.56;10411637;28;1995;-55
2022/01/22 10:02:26;;;;;;;;;;;;;;;21.27;26.76;96887.75;10408657;28;1940;-55
2022/01/22 10:07:26;;;;;;;;;;;;;;;21.21;26.82;96894.03;10410928;28;2527;-57
2022/01/22 10:12:29;;;;;;;;;;;;;;;21.23;26.70;96891.13;10412463;28;1913;-56
2022/01/22 10:17:56;;;;;;;;;;;;;;;21.23;26.70;96896.41;10387499;28;1953;-57
2022/01/22 10:23:01;;;;;;;;;;;;;;;21.22;25.38;96894.84;10398469;28;2699;-58
2022/01/22 10:28:06;;;;;;;;;;;;;;;21.17;25.40;96894.78;10406803;28;1965;-57
2022/01/22 10:38:37;;;;;;;;;;;;;;;21.17;26.75;96897.41;10408495;28;2085;-55
2022/01/22 10:43:42;;;;;;;;;;;;;;;21.19;26.26;96885.59;10425057;28;1980;-57
2022/01/22 10:48:44;;;;;;;;;;;;;;;21.27;26.90;96884.34;10410599;28;1927;-55
2022/01/22 10:53:48;;;;;;;;;;;;;;;21.19;25.79;96885.59;10404716;28;2333;-57
2022/01/22 10:59:08;;;;;;;;;;;;;;;21.18;26.03;96891.13;10419092;28;1916;-57
2022/01/22 11:04:18;;;;;;;;;;;;;;;21.18;26.72;96886.66;10406601;28;1954;-58
2022/01/22 11:09:18;;;;;;;;;;;;;;;21.13;26.12;96883.13;10408203;28;1990;-54
2022/01/22 11:14:19;;;;;;;;;;;;;;;21.13;24.79;96897.13;10419368;28;1907;-58
2022/01/22 11:19:20;;;;;;;;;;;;;;;21.14;24.41;96900.56;10407352;28;1899;-59
2022/01/22 11:24:22;;;;;;;;;;;;;;;21.15;25.44;96897.66;10404085;28;2171;-58
2022/01/22 11:29:23;;;;;;;;;;;;;;;21.15;26.43;96905.59;10404890;28;1949;-56
2022/01/22 11:34:25;;;;;;;;;;;;;;;21.16;26.44;96914.28;10402636;28;2000;-57
2022/01/22 11:39:25;;;;;;;;;;;;;;;21.25;26.63;96907.50;10396402;28;1864;-55
2022/01/22 11:44:29;;;;;;;;;;;;;;;21.09;25.91;96906.56;10405676;28;1988;-55
2022/01/22 11:49:30;;;;;;;;;;;;;;;21.15;26.36;96902.16;10419376;28;1983;-59
2022/01/22 11:54:33;;;;;;;;;;;;;;;21.14;25.56;96903.19;10408389;28;2019;-59
2022/01/22 11:59:33;;;;;;;;;;;;;;;21.11;25.83;96904.50;10410743;28;1944;-56
2022/01/22 12:04:34;;;;;;;;;;;;;;;21.11;26.19;96908.97;10412415;28;1993;-59
2022/01/22 12:14:51;;;;;;;;;;;;;;;21.05;25.06;96894.94;10417665;28;2344;-57
2022/01/22 12:24:59;;;;;;;;;;;;;;;21.01;25.36;96888.53;10407918;28;1994;-59
2022/01/22 12:30:00;;;;;;;;;;;;;;;21.05;25.97;96892.31;10419184;28;2011;-58
2022/01/22 12:35:06;;;;;;;;;;;;;;;21.00;26.16;96887.75;10405678;28;1949;-56
2022/01/22 12:40:06;;;;;;;;;;;;;;;21.04;26.36;96896.00;10410104;28;2191;-58
2022/01/22 12:45:07;;;;;;;;;;;;;;;21.05;26.06;96901.03;10410441;28;2122;-58
2022/01/22 12:50:08;;;;;;;;;;;;;;;21.04;26.13;96896.78;10408694;28;1959;-58
2022/01/22 12:55:15;;;;;;;;;;;;;;;20.97;25.00;96884.81;10410602;28;2068;-58
2022/01/22 13:00:18;;;;;;;;;;;;;;;20.99;24.82;96886.16;10412605;28;1952;-57
2022/01/22 13:05:19;;;;;;;;;;;;;;;21.07;25.84;96890.22;10402925;28;2050;-57
2022/01/22 13:10:26;;;;;;;;;;;;;;;21.03;25.14;96874.09;10415011;28;1897;-58
2022/01/22 13:15:27;;;;;;;;;;;;;;;21.04;26.00;96888.88;10415904;28;2061;-57
2022/01/22 13:20:28;;;;;;;;;;;;;;;21.00;25.14;96886.94;10413958;28;1990;-57
2022/01/22 13:25:29;;;;;;;;;;;;;;;21.01;24.65;96891.19;10409251;28;1979;-55
2022/01/22 13:30:33;;;;;;;;;;;;;;;21.02;26.01;96904.13;10412700;28;1990;-58
2022/01/22 13:50:59;;;;;;;;;;;;;;;21.02;25.97;96906.78;10415233;28;1972;-74
2022/01/22 13:56:11;;;;;;;;;;;;;;;21.04;25.92;96906.53;10399579;28;1951;-74
2022/01/22 14:01:40;;;;;;;;;;;;;;;21.02;25.48;96900.69;10400746;28;1902;-73
2022/01/22 14:06:43;;;;;;;;;;;;;;;21.03;26.17;96911.00;10367203;28;1980;-71
2022/01/22 14:12:03;;;;;;;;;;;;;;;21.02;25.56;96903.34;10359221;28;1948;-75
2022/01/22 14:17:11;;;;;;;;;;;;;;;21.03;26.19;96903.09;10398305;28;2080;-73
2022/01/22 14:22:14;;;;;;;;;;;;;;;21.04;26.19;96914.47;10384414;28;1931;-74
2022/01/22 14:27:20;;;;;;;;;;;;;;;21.03;25.63;96907.56;10414816;28;1851;-72
2022/01/22 14:32:21;;;;;;;;;;;;;;;21.01;25.31;96910.44;10380936;28;1960;-73
2022/01/22 14:37:31;;;;;;;;;;;;;;;21.00;25.60;96905.38;10382309;28;1894;-73
2022/01/22 14:47:57;;;;;;;;;;;;;;;20.99;26.10;96907.25;10380514;28;1933;-74
2022/01/22 14:52:58;;;;;;;;;;;;;;;20.97;25.49;96901.44;10408719;28;1985;-73
2022/01/22 14:57:58;;;;;;;;;;;;;;;21.04;25.47;96907.31;10378303;28;1922;-73
2022/01/22 15:02:59;;;;;;;;;;;;;;;21.03;26.29;96904.94;10410346;28;1910;-73
2022/01/22 15:08:00;;;;;;;;;;;;;;;21.03;26.13;96913.66;10391956;28;1911;-73
2022/01/22 15:13:00;;;;;;;;;;;;;;;21.01;25.55;96910.44;10388066;28;1951;-73
2022/01/22 15:18:12;;;;;;;;;;;;;;;21.01;24.89;96931.53;10423804;28;1961;-73
2022/01/22 15:23:12;;;;;;;;;;;;;;;21.02;26.30;96929.69;10402559;28;1978;-73
2022/01/22 15:28:15;;;;;;;;;;;;;;;21.03;25.83;96937.38;10398909;28;2108;-73
2022/01/22 15:33:23;;;;;;;;;;;;;;;21.03;26.12;96931.31;10383460;28;1924;-73
2022/01/22 15:38:23;;;;;;;;;;;;;;;21.05;25.26;96932.66;10396934;28;1934;-74
2022/01/22 15:43:24;;;;;;;;;;;;;;;21.03;25.62;96939.22;10398661;28;1969;-74
2022/01/22 15:48:24;;;;;;;;;;;;;;;20.96;25.32;96938.56;10394757;28;1902;-73
2022/01/22 15:53:24;;;;;;;;;;;;;;;20.95;25.20;96931.72;10400212;28;2038;-74
2022/01/22 15:58:25;;;;;;;;;;;;;;;21.01;25.91;96939.44;10384124;28;1825;-73
2022/01/22 16:03:27;;;;;;;;;;;;;;;21.00;25.60;96942.28;10400364;28;1902;-73
2022/01/22 16:08:27;;;;;;;;;;;;;;;20.99;25.16;96944.16;10393369;28;1892;-73
2022/01/22 16:13:28;;;;;;;;;;;;;;;21.02;25.64;96954.22;10395230;28;1812;-73
2022/01/22 16:18:28;;;;;;;;;;;;;;;21.01;26.12;96968.44;10398609;28;1860;-73
2022/01/22 16:23:29;;;;;;;;;;;;;;;21.01;25.86;96967.63;10382545;28;1934;-73
2022/01/22 16:28:29;;;;;;;;;;;;;;;20.99;25.15;96965.25;10393883;28;1890;-73
2022/01/22 16:33:29;;;;;;;;;;;;;;;20.99;25.67;96975.00;10380193;28;1794;-72
2022/01/22 16:38:30;;;;;;;;;;;;;;;20.99;25.42;96975.78;10381566;28;1814;-73
2022/01/22 16:43:34;;;;;;;;;;;;;;;21.01;25.65;96991.34;10395728;28;1977;-73
2022/01/22 16:59:17;;;;;;;;;;;;;;;20.94;25.27;96996.81;10409594;28;1750;-73
2022/01/22 17:04:21;;;;;;;;;;;;;;;20.97;25.51;97000.78;10395891;28;1976;-73
2022/01/22 17:14:25;;;;;;;;;;;;;;;21.00;25.88;97009.00;10380501;28;1854;-74
2022/01/22 17:19:27;;;;;;;;;;;;;;;20.97;24.61;97014.78;10375263;28;1789;-73
2022/01/22 17:24:28;;;;;;;;;;;;;;;21.00;25.48;97014.28;10380331;28;1979;-73
2022/01/22 17:29:28;;;;;;;;;;;;;;;20.99;25.86;97007.41;10376735;28;1813;-73
2022/01/22 17:34:29;;;;;;;;;;;;;;;20.96;25.29;97013.16;10390475;28;1841;-73
2022/01/22 17:39:33;;;;;;;;;;;;;;;20.99;25.45;97022.44;10378537;28;1985;-72
2022/01/22 17:44:36;;;;;;;;;;;;;;;20.95;25.16;97026.59;10396784;28;1902;-72
2022/01/22 17:49:36;;;;;;;;;;;;;;;20.99;25.40;97032.97;10395046;28;1890;-73
2022/01/22 17:54:37;;;;;;;;;;;;;;;20.98;25.51;97031.38;10400169;28;1842;-74
2022/01/22 17:59:37;;;;;;;;;;;;;;;20.98;25.38;97034.81;10398220;28;1786;-74
2022/01/22 18:04:37;;;;;;;;;;;;;;;21.01;25.74;97034.34;10395440;28;1980;-73
2022/01/22 18:09:38;;;;;;;;;;;;;;;20.99;25.53;97043.53;10378505;28;1833;-73
2022/01/22 18:14:39;;;;;;;;;;;;;;;21.00;25.25;97043.28;10393985;28;1820;-73
2022/01/22 18:19:39;;;;;;;;;;;;;;;20.99;25.74;97048.78;10379990;28;1919;-73
2022/01/22 18:24:40;;;;;;;;;;;;;;;21.01;25.85;97044.88;10374258;28;1902;-72
2022/01/22 18:29:40;;;;;;;;;;;;;;;21.01;25.63;97050.16;10395846;28;1887;-73
2022/01/22 18:34:41;;;;;;;;;;;;;;;21.01;24.96;97052.78;10391399;28;1888;-73
2022/01/22 18:39:41;;;;;;;;;;;;;;;20.99;25.45;97048.78;10391498;28;1752;-73
2022/01/22 18:44:42;;;;;;;;;;;;;;;20.99;25.64;97054.88;10390355;28;1955;-73
2022/01/22 18:49:42;;;;;;;;;;;;;;;21.02;25.42;97062.31;10407483;28;1822;-72
2022/01/22 18:54:43;;;;;;;;;;;;;;;20.99;25.33;97060.16;10384756;28;2165;-73
2022/01/22 18:59:44;;;;;;;;;;;;;;;21.01;25.87;97059.91;10395464;28;1877;-73
2022/01/22 19:04:44;;;;;;;;;;;;;;;21.00;25.33;97067.00;10379954;28;1911;-71
2022/01/22 19:09:45;;;;;;;;;;;;;;;20.99;25.07;97069.88;10386798;28;1784;-73
2022/01/22 19:14:45;;;;;;;;;;;;;;;21.02;25.71;97069.41;10387140;28;1807;-73
2022/01/22 19:19:46;;;;;;;;;;;;;;;21.02;25.78;97080.75;10388392;28;1786;-73
2022/01/22 19:30:06;;;;;;;;;;;;;;;21.02;25.81;97085.22;10390388;28;1812;-73
2022/01/22 19:35:06;;;;;;;;;;;;;;;21.00;25.83;97088.09;10386712;28;1891;-73
2022/01/22 19:40:07;;;;;;;;;;;;;;;21.02;25.74;97095.78;10391222;28;1902;-73
2022/01/22 19:45:08;;;;;;;;;;;;;;;21.03;25.86;97087.66;10391707;28;1985;-73
2022/01/22 19:50:09;;;;;;;;;;;;;;;21.04;25.30;97094.50;10392725;28;1971;-73
2022/01/22 19:55:44;;;;;;;;;;;;;;;21.08;25.67;97099.28;10376944;28;1813;-72
2022/01/22 20:00:44;;;;;;;;;;;;;;;21.05;25.80;97096.09;10401637;28;1851;-73
2022/01/22 20:05:45;;;;;;;;;;;;;;;21.01;25.72;97086.25;10396878;28;1921;-73
2022/01/22 20:10:47;;;;;;;;;;;;;;;21.01;25.69;97094.97;10395556;28;1728;-73
2022/01/22 20:15:48;;;;;;;;;;;;;;;21.01;25.71;97084.41;10399846;28;1822;-73
2022/01/22 20:20:48;;;;;;;;;;;;;;;21.04;25.28;97088.44;10395975;28;1697;-71
2022/01/22 20:25:49;;;;;;;;;;;;;;;20.99;25.72;97080.44;10390551;28;2172;-71
2022/01/22 20:30:49;;;;;;;;;;;;;;;21.01;25.74;97073.88;10391750;28;1894;-72
2022/01/22 20:35:50;;;;;;;;;;;;;;;20.99;25.00;97069.88;10443024;23;2081;-56
2022/01/22 20:40:50;;;;;;;;;;;;;;;20.98;24.59;97069.09;10460523;28;1946;-56
2022/01/22 20:45:51;;;;;;;;;;;;;;;20.99;25.59;97075.97;10464284;28;1997;-57
2022/01/22 20:50:51;;;;;;;;;;;;;;;21.00;25.69;97074.91;10463311;28;2117;-57
2022/01/22 20:55:52;;;;;;;;;;;;;;;21.00;25.47;97084.66;10461623;28;2034;-57
2022/01/22 21:00:52;;;;;;;;;;;;;;;20.99;25.43;97075.97;10460886;28;1879;-58
2022/01/22 21:05:53;;;;;;;;;;;;;;;21.01;25.41;97083.63;10468979;28;1915;-56
2022/01/22 21:10:54;;;;;;;;;;;;;;;21.01;25.59;97073.88;10454691;28;1964;-56
2022/01/22 21:15:54;;;;;;;;;;;;;;;21.05;26.55;97085.56;10451552;28;2070;-53
2022/01/22 21:20:55;;;;;;;;;;;;;;;21.31;27.31;97088.53;10450672;28;1978;-59
2022/01/22 21:25:55;;;;;;;;;;;;;;;21.46;27.87;97086.03;10457299;28;1964;-53
2022/01/22 21:30:56;;;;;;;;;;;;;;;21.51;27.50;97086.09;10460838;28;1946;-54
2022/01/22 21:35:57;;;;;;;;;;;;;;;21.59;28.39;97088.31;10461788;28;1918;-52
2022/01/22 21:40:58;;;;;;;;;;;;;;;21.68;28.54;97071.78;10461245;28;1911;-58
2022/01/22 21:45:58;;;;;;;;;;;;;;;21.79;28.28;97072.66;10443788;28;1948;-53
2022/01/22 21:50:59;;;;;;;;;;;;;;;21.85;28.01;97069.06;10454510;28;2069;-57
2022/01/22 21:56:03;;;;;;;;;;;;;;;21.90;27.93;97071.75;10456490;28;1902;-54
2022/01/22 22:01:05;;;;;;;;;;;;;;;21.99;28.78;97072.88;10454102;28;2418;-53
2022/01/22 22:06:05;;;;;;;;;;;;;;;22.10;28.36;97076.41;10452120;28;1920;-50
2022/01/22 22:11:06;;;;;;;;;;;;;;;22.18;28.43;97073.31;10457969;28;2132;-57
2022/01/22 22:16:07;;;;;;;;;;;;;;;22.23;27.32;97076.00;10461641;28;1896;-51
2022/01/22 22:21:09;;;;;;;;;;;;;;;22.21;27.31;97073.63;10462131;28;1923;-50
2022/01/22 22:26:11;;;;;;;;;;;;;;;22.23;27.59;97068.88;10457729;28;1906;-53
2022/01/22 22:31:13;;;;;;;;;;;;;;;22.33;26.78;97068.97;10460287;28;1986;-51
2022/01/22 22:36:15;;;;;;;;;;;;;;;22.33;27.40;97068.16;10463295;28;1955;-53
2022/01/22 22:41:16;;;;;;;;;;;;;;;22.41;27.51;97065.03;10460220;28;2109;-52
2022/01/22 22:46:17;;;;;;;;;;;;;;;22.35;26.97;97058.94;10462740;28;1922;-56
2022/01/22 22:51:19;;;;;;;;;;;;;;;22.37;26.89;97050.75;10457233;28;2610;-56
2022/01/22 22:56:21;;;;;;;;;;;;;;;22.39;27.01;97052.09;10455131;28;1946;-56
2022/01/22 23:01:22;;;;;;;;;;;;;;;22.46;27.68;97043.94;10459818;28;1924;-58
2022/01/22 23:06:22;;;;;;;;;;;;;;;22.44;27.57;97041.53;10449916;28;1990;-60
2022/01/22 23:11:23;;;;;;;;;;;;;;;22.46;27.70;97043.94;10458807;28;1899;-53
2022/01/22 23:16:45;;;;;;;;;;;;;;;22.44;27.20;97040.78;10459624;28;2004;-53
2022/01/22 23:21:50;;;;;;;;;;;;;;;22.39;27.56;97044.16;10458050;28;1920;-51
2022/01/22 23:26:50;;;;;;;;;;;;;;;22.39;27.12;97044.16;10454339;28;2059;-54
2022/01/22 23:31:54;;;;;;;;;;;;;;;22.38;27.34;97053.13;10466377;28;2002;-53
2022/01/22 23:37:24;;;;;;;;;;;;;;;22.38;27.61;97053.13;10463993;28;1974;-56
